Time;durP1;ratioP1;P1;durP2;ratioP2;P2;SDS_P1;SDS_P2;PMS_P1;PMS_P2;Temp;Humidity;BMP_temperature;BMP_pressure;BME280_temperature;BME280_humidity;BME280_pressure;Samples;Min_cycle;Max_cycle;Signal;HPM_P1;HPM_P2
2024/01/20 00:01:54;;;;;;;30.00;19.87;;;-2.60;17.20;;;;;;5050046;28;20528;-71
2024/01/20 00:04:21;;;;;;;39.60;22.87;;;-2.60;17.20;;;;;;5048748;28;20849;-69
2024/01/20 00:06:48;;;;;;;40.03;21.43;;;-2.60;17.40;;;;;;5049911;28;20485;-69
2024/01/20 00:09:16;;;;;;;36.13;22.70;;;-2.70;17.60;;;;;;5046003;28;20458;-70
2024/01/20 00:11:43;;;;;;;37.00;20.40;;;-2.70;17.80;;;;;;5047164;28;20465;-69
2024/01/20 00:14:09;;;;;;;32.30;17.83;;;-2.70;17.70;;;;;;5050966;28;20488;-69
2024/01/20 00:16:38;;;;;;;29.70;18.70;;;-2.70;17.60;;;;;;5048446;28;20568;-69
2024/01/20 00:19:05;;;;;;;42.00;22.40;;;-2.80;17.50;;;;;;5050945;28;20812;-69
2024/01/20 00:21:31;;;;;;;36.93;20.90;;;-2.80;17.50;;;;;;5060275;28;20900;-69
2024/01/20 00:23:58;;;;;;;34.87;20.20;;;-2.80;17.40;;;;;;5050925;28;20512;-69
2024/01/20 00:26:25;;;;;;;32.63;20.43;;;-2.90;17.30;;;;;;5049594;28;20976;-68
2024/01/20 00:28:52;;;;;;;35.80;22.10;;;-2.90;17.30;;;;;;5049379;28;20899;-68
2024/01/20 00:31:19;;;;;;;33.40;21.47;;;-2.90;17.30;;;;;;5047278;28;20473;-68
2024/01/20 00:33:47;;;;;;;33.00;20.90;;;-2.90;17.40;;;;;;5047967;28;20482;-69
2024/01/20 00:36:14;;;;;;;39.33;21.17;;;-2.90;17.30;;;;;;5047973;28;20577;-68
2024/01/20 00:38:42;;;;;;;37.40;21.03;;;-3.00;17.40;;;;;;5047128;28;20458;-68
2024/01/20 00:41:10;;;;;;;32.73;19.90;;;-3.00;17.40;;;;;;5044648;28;20466;-68
2024/01/20 00:43:37;;;;;;;32.23;17.70;;;-3.00;17.40;;;;;;5048516;28;20565;-68
2024/01/20 00:46:04;;;;;;;38.50;17.53;;;-3.00;17.40;;;;;;5047784;28;20454;-68
2024/01/20 00:48:31;;;;;;;30.90;18.07;;;-3.10;17.50;;;;;;5046017;28;20490;-68
2024/01/20 00:50:59;;;;;;;36.20;19.83;;;-3.00;17.80;;;;;;5047501;28;20953;-68
2024/01/20 00:53:26;;;;;;;30.53;17.90;;;-3.00;17.60;;;;;;5048141;28;20454;-68
2024/01/20 00:55:53;;;;;;;31.93;19.70;;;-3.00;17.60;;;;;;5046058;28;20576;-68
2024/01/20 00:58:20;;;;;;;28.37;18.43;;;-3.00;17.70;;;;;;5044779;28;20474;-68
2024/01/20 01:00:46;;;;;;;30.73;18.70;;;-3.10;17.70;;;;;;5045286;23;21083;-71
2024/01/20 01:03:13;;;;;;;30.03;17.70;;;-3.10;17.80;;;;;;5026692;28;20559;-71
2024/01/20 01:05:40;;;;;;;33.33;19.70;;;-3.10;17.80;;;;;;5026233;28;20451;-71
2024/01/20 01:08:08;;;;;;;34.53;17.33;;;-3.20;17.90;;;;;;5004129;28;20479;-71
2024/01/20 01:10:35;;;;;;;30.83;19.07;;;-3.20;17.80;;;;;;5009018;28;20836;-71
2024/01/20 01:13:02;;;;;;;35.07;21.03;;;-3.20;17.80;;;;;;5010713;28;20488;-72
2024/01/20 01:15:31;;;;;;;31.80;19.13;;;-3.20;17.80;;;;;;5004589;28;20516;-71
2024/01/20 01:17:58;;;;;;;30.53;20.00;;;-3.20;17.80;;;;;;5005472;28;20571;-71
2024/01/20 01:20:25;;;;;;;31.87;19.37;;;-3.20;17.70;;;;;;5003225;28;20775;-71
2024/01/20 01:22:53;;;;;;;35.53;19.90;;;-3.20;17.70;;;;;;5001636;28;20460;-71
2024/01/20 01:25:22;;;;;;;28.23;17.00;;;-3.30;17.70;;;;;;5007880;28;20455;-72
2024/01/20 01:27:49;;;;;;;32.43;18.57;;;-3.30;17.70;;;;;;5008690;28;20486;-72
2024/01/20 01:30:16;;;;;;;25.80;17.63;;;-3.40;17.50;;;;;;5006108;28;20889;-72
2024/01/20 01:32:43;;;;;;;34.30;19.27;;;-3.40;17.70;;;;;;5006475;28;20462;-72
2024/01/20 01:35:10;;;;;;;36.23;19.60;;;-3.40;17.70;;;;;;5000756;28;20486;-72
2024/01/20 01:37:36;;;;;;;33.97;18.90;;;-3.40;17.80;;;;;;5001620;28;20506;-72
2024/01/20 01:40:04;;;;;;;33.37;18.10;;;-3.40;17.80;;;;;;5005950;28;20466;-72
2024/01/20 01:42:33;;;;;;;33.53;19.63;;;-3.30;18.10;;;;;;5003648;28;20547;-72
2024/01/20 01:45:00;;;;;;;40.60;21.30;;;-3.20;18.30;;;;;;5005837;28;20466;-72
2024/01/20 01:47:27;;;;;;;37.00;19.93;;;-3.20;18.40;;;;;;5001259;28;20573;-72
2024/01/20 01:49:54;;;;;;;35.67;17.37;;;-3.10;18.40;;;;;;5004760;28;20459;-72
2024/01/20 01:52:23;;;;;;;28.77;17.70;;;-3.10;18.60;;;;;;5005101;28;20476;-72
2024/01/20 01:54:50;;;;;;;24.43;14.83;;;-3.10;18.70;;;;;;5003654;28;20489;-72
2024/01/20 01:57:18;;;;;;;25.27;14.60;;;-3.10;18.70;;;;;;5002520;28;20515;-72
2024/01/20 01:59:47;;;;;;;31.07;16.77;;;-3.10;18.60;;;;;;5003889;28;20472;-72
2024/01/20 02:02:14;;;;;;;31.07;16.40;;;-3.10;18.60;;;;;;5007654;28;20482;-72
2024/01/20 02:04:41;;;;;;;30.90;18.03;;;-3.10;18.80;;;;;;5004189;28;20463;-72
2024/01/20 02:07:07;;;;;;;28.30;17.20;;;-3.10;19.10;;;;;;5000683;28;20486;-72
2024/01/20 02:09:35;;;;;;;28.10;16.60;;;-3.00;19.20;;;;;;5004347;28;20462;-72
2024/01/20 02:12:03;;;;;;;30.50;16.63;;;-3.00;19.30;;;;;;5006290;28;20588;-72
2024/01/20 02:14:30;;;;;;;37.90;20.17;;;-2.90;19.30;;;;;;5006193;28;20515;-72
2024/01/20 02:16:58;;;;;;;40.67;20.80;;;-2.80;19.60;;;;;;5005163;28;20516;-72
2024/01/20 02:19:25;;;;;;;35.50;19.90;;;-2.80;19.80;;;;;;5005801;28;20472;-72
2024/01/20 02:21:52;;;;;;;35.00;19.50;;;-2.70;19.70;;;;;;5008871;28;20946;-72
2024/01/20 02:24:20;;;;;;;40.90;19.90;;;-2.70;20.00;;;;;;5005509;28;20547;-72
2024/01/20 02:26:48;;;;;;;43.33;20.63;;;-2.70;20.20;;;;;;5007888;28;20483;-72
2024/01/20 02:29:14;;;;;;;37.43;20.70;;;-2.70;20.40;;;;;;5004496;28;20571;-72
2024/01/20 02:31:41;;;;;;;38.97;21.20;;;-2.60;20.40;;;;;;5018743;28;20552;-72
2024/01/20 02:34:08;;;;;;;33.40;18.70;;;-2.60;20.50;;;;;;5019675;28;20495;-72
2024/01/20 02:36:35;;;;;;;41.97;21.30;;;-2.50;20.50;;;;;;5009200;28;20591;-72
2024/01/20 02:39:02;;;;;;;41.27;22.50;;;-2.40;20.40;;;;;;5007409;28;20465;-72
2024/01/20 02:41:30;;;;;;;41.77;21.63;;;-2.40;20.60;;;;;;5005302;28;20551;-72
2024/01/20 02:43:57;;;;;;;41.53;21.27;;;-2.30;20.80;;;;;;5008764;28;20982;-72
2024/01/20 02:46:24;;;;;;;40.80;21.57;;;-2.30;20.50;;;;;;4998202;28;20552;-71
2024/01/20 02:48:50;;;;;;;42.17;21.40;;;-2.20;20.60;;;;;;5003854;28;20900;-72
2024/01/20 02:51:17;;;;;;;39.20;22.10;;;-2.20;20.70;;;;;;5004980;28;20464;-72
2024/01/20 02:53:44;;;;;;;44.50;23.00;;;-2.20;20.80;;;;;;5002775;28;20464;-72
2024/01/20 02:56:13;;;;;;;38.00;20.90;;;-2.10;20.80;;;;;;5002828;28;20491;-72
2024/01/20 02:58:41;;;;;;;41.43;21.87;;;-2.10;21.20;;;;;;5009052;28;20460;-72
2024/01/20 03:01:08;;;;;;;48.00;21.60;;;-2.10;21.30;;;;;;5001890;28;20479;-72
2024/01/20 03:03:35;;;;;;;43.07;22.43;;;-2.10;21.50;;;;;;4998628;28;20953;-72
2024/01/20 03:06:02;;;;;;;57.70;21.83;;;-2.10;21.60;;;;;;5003148;28;21044;-72
2024/01/20 03:08:29;;;;;;;41.80;19.40;;;-2.00;21.40;;;;;;5001748;28;20599;-72
2024/01/20 03:10:56;;;;;;;35.93;18.20;;;-2.00;21.40;;;;;;5006759;28;20919;-72
2024/01/20 03:13:23;;;;;;;52.07;20.27;;;-1.90;21.20;;;;;;5006295;28;20987;-72
2024/01/20 03:15:51;;;;;;;36.97;19.77;;;-1.90;21.50;;;;;;5004990;28;20483;-71
2024/01/20 03:18:18;;;;;;;40.00;19.00;;;-1.90;21.50;;;;;;5005802;28;20582;-72
2024/01/20 03:20:45;;;;;;;43.57;20.23;;;-1.90;22.00;;;;;;5002302;28;20474;-72
2024/01/20 03:23:12;;;;;;;42.10;20.87;;;-1.90;21.50;;;;;;5003967;28;20471;-72
2024/01/20 03:25:39;;;;;;;41.43;20.10;;;-1.90;21.60;;;;;;5009014;28;21257;-71
2024/01/20 03:28:06;;;;;;;40.20;21.13;;;-1.90;21.70;;;;;;5009382;28;20483;-72
2024/01/20 03:30:33;;;;;;;43.37;21.10;;;-1.90;21.80;;;;;;5008091;28;20562;-71
2024/01/20 03:33:01;;;;;;;46.87;22.33;;;-2.00;21.80;;;;;;5003350;28;20460;-72
2024/01/20 03:35:28;;;;;;;48.53;21.43;;;-2.00;22.10;;;;;;5000496;28;20479;-72
2024/01/20 03:37:55;;;;;;;53.73;24.03;;;-1.90;22.30;;;;;;5008613;28;20490;-72
2024/01/20 03:40:22;;;;;;;54.17;24.33;;;-1.90;22.40;;;;;;5003431;28;21004;-72
2024/01/20 03:42:48;;;;;;;50.93;21.43;;;-1.90;22.20;;;;;;5006365;28;21000;-72
2024/01/20 03:45:15;;;;;;;41.33;20.77;;;-1.90;22.40;;;;;;5001443;28;20960;-72
2024/01/20 03:47:42;;;;;;;48.63;24.93;;;-1.90;22.40;;;;;;5004926;28;20487;-72
2024/01/20 03:50:10;;;;;;;55.97;22.53;;;-1.90;22.40;;;;;;5008619;28;20451;-72
2024/01/20 03:52:37;;;;;;;50.20;22.77;;;-1.90;22.40;;;;;;5008930;28;20467;-72
2024/01/20 03:55:05;;;;;;;45.87;21.53;;;-1.90;22.50;;;;;;5004279;28;20482;-72
2024/01/20 03:57:32;;;;;;;42.90;21.43;;;-1.90;22.60;;;;;;5011231;28;20491;-71
2024/01/20 03:59:59;;;;;;;38.17;19.43;;;-1.80;22.50;;;;;;5006494;28;20463;-72
2024/01/20 04:02:27;;;;;;;75.33;22.00;;;-1.80;22.50;;;;;;5011237;28;20566;-72
2024/01/20 04:04:54;;;;;;;41.90;19.10;;;-1.90;22.30;;;;;;5010065;28;20464;-72
2024/01/20 04:07:22;;;;;;;65.90;19.90;;;-1.90;22.20;;;;;;5004986;28;20976;-72
2024/01/20 04:09:49;;;;;;;57.17;19.60;;;-1.90;22.10;;;;;;5003157;28;20468;-72
2024/01/20 04:12:16;;;;;;;51.87;20.33;;;-1.90;22.10;;;;;;5011147;28;20468;-72
2024/01/20 04:14:43;;;;;;;37.70;17.93;;;-1.90;21.90;;;;;;5007736;28;21310;-72
2024/01/20 04:17:11;;;;;;;52.20;19.77;;;-1.90;22.00;;;;;;5009658;28;20502;-72
2024/01/20 04:19:37;;;;;;;52.20;21.67;;;-1.90;22.10;;;;;;5009476;28;20463;-72
2024/01/20 04:22:04;;;;;;;41.63;19.87;;;-1.90;22.30;;;;;;5010390;28;20482;-72
2024/01/20 04:24:33;;;;;;;52.60;20.00;;;-1.90;22.30;;;;;;5005438;28;20465;-72
2024/01/20 04:26:59;;;;;;;43.70;22.13;;;-1.90;22.40;;;;;;5008100;28;20491;-72
2024/01/20 04:29:26;;;;;;;47.70;21.37;;;-1.90;22.40;;;;;;5003213;28;20576;-72
2024/01/20 04:31:53;;;;;;;54.60;21.03;;;-1.90;22.20;;;;;;5004394;28;20481;-72
2024/01/20 04:34:20;;;;;;;41.20;19.97;;;-1.90;22.30;;;;;;5006583;28;20460;-72
2024/01/20 04:36:47;;;;;;;48.23;20.50;;;-1.90;22.10;;;;;;5005122;28;20505;-72
2024/01/20 04:39:14;;;;;;;41.57;18.83;;;-1.90;22.20;;;;;;5006698;28;20925;-72
2024/01/20 04:41:42;;;;;;;41.93;19.63;;;-1.90;22.10;;;;;;5005133;28;20470;-72
2024/01/20 04:44:09;;;;;;;54.23;21.00;;;-1.90;22.30;;;;;;5002217;28;20471;-72
2024/01/20 04:46:35;;;;;;;43.07;20.37;;;-1.90;22.40;;;;;;5004270;28;20503;-72
2024/01/20 04:49:02;;;;;;;42.77;20.90;;;-1.90;22.20;;;;;;5005191;28;20555;-72
2024/01/20 04:51:29;;;;;;;58.07;21.03;;;-1.90;22.30;;;;;;5010163;28;20467;-72
2024/01/20 04:53:56;;;;;;;43.83;20.00;;;-1.90;22.30;;;;;;5010072;28;20975;-72
2024/01/20 04:56:23;;;;;;;39.50;18.97;;;-1.90;22.40;;;;;;5007232;28;20490;-72
2024/01/20 04:58:53;;;;;;;53.90;19.67;;;-1.90;22.00;;;;;;5002145;28;20499;-72
2024/01/20 05:01:20;;;;;;;99.67;22.90;;;-1.90;22.00;;;;;;5004953;28;20555;-72
2024/01/20 05:03:47;;;;;;;102.13;22.70;;;-1.80;21.80;;;;;;5007603;28;20539;-72
2024/01/20 05:06:14;;;;;;;71.17;21.40;;;-1.90;21.90;;;;;;5009589;28;20460;-72
2024/01/20 05:08:41;;;;;;;63.37;18.90;;;-2.00;22.30;;;;;;5004184;28;20467;-71
2024/01/20 05:11:08;;;;;;;46.80;19.70;;;-2.10;22.40;;;;;;5003852;28;20460;-72
2024/01/20 05:13:35;;;;;;;62.23;19.73;;;-2.20;22.40;;;;;;5001713;28;20462;-71
2024/01/20 05:16:03;;;;;;;56.23;19.93;;;-2.20;22.50;;;;;;5006710;28;21132;-72
2024/01/20 05:18:30;;;;;;;57.50;19.97;;;-2.20;22.50;;;;;;4999808;28;20485;-72
2024/01/20 05:20:57;;;;;;;91.43;21.10;;;-2.30;22.70;;;;;;5001682;28;20495;-72
2024/01/20 05:23:23;;;;;;;39.60;18.27;;;-2.40;23.20;;;;;;4995103;28;20452;-71
2024/01/20 05:25:50;;;;;;;41.67;19.00;;;-2.40;23.30;;;;;;5006950;28;20547;-72
2024/01/20 05:28:17;;;;;;;41.27;17.47;;;-2.40;23.30;;;;;;5005020;28;20475;-72
2024/01/20 05:30:44;;;;;;;49.93;19.60;;;-2.40;22.80;;;;;;5007933;28;20472;-71
2024/01/20 05:33:12;;;;;;;88.87;23.20;;;-2.40;22.50;;;;;;4999309;28;20459;-72
2024/01/20 05:35:39;;;;;;;98.97;20.93;;;-2.30;22.20;;;;;;5005839;28;20483;-72
2024/01/20 05:38:06;;;;;;;50.80;17.90;;;-2.40;22.30;;;;;;5004082;28;20480;-72
2024/01/20 05:40:33;;;;;;;68.87;19.27;;;-2.40;22.30;;;;;;5009434;28;20477;-72
2024/01/20 05:43:00;;;;;;;37.43;16.77;;;-2.50;22.40;;;;;;5007369;28;20470;-72
2024/01/20 05:45:26;;;;;;;34.40;18.10;;;-2.50;22.70;;;;;;5003783;28;20547;-71
2024/01/20 05:47:53;;;;;;;40.83;18.57;;;-2.50;22.70;;;;;;5007345;28;20480;-72
2024/01/20 05:50:22;;;;;;;37.87;17.57;;;-2.60;22.70;;;;;;5010691;28;20956;-72
2024/01/20 05:52:48;;;;;;;41.77;19.43;;;-2.50;22.70;;;;;;5007381;28;20913;-72
2024/01/20 05:55:15;;;;;;;40.80;17.87;;;-2.50;22.80;;;;;;5007904;28;20464;-72
2024/01/20 05:57:43;;;;;;;40.03;17.13;;;-2.50;22.80;;;;;;5001797;28;20501;-72
2024/01/20 06:00:10;;;;;;;37.97;19.93;;;-2.50;22.90;;;;;;5002767;28;20470;-72
2024/01/20 06:02:37;;;;;;;46.90;19.60;;;-2.50;23.10;;;;;;4997848;28;20492;-75
2024/01/20 06:05:05;;;;;;;40.17;19.20;;;-2.50;23.40;;;;;;5010923;28;20552;-72
2024/01/20 06:07:34;;;;;;;39.43;18.33;;;-2.50;23.50;;;;;;5006607;28;20475;-72
2024/01/20 06:10:01;;;;;;;36.90;17.47;;;-2.40;23.50;;;;;;4999341;28;20837;-72
2024/01/20 06:12:28;;;;;;;59.23;19.17;;;-2.40;23.20;;;;;;5003728;28;20464;-72
2024/01/20 06:14:54;;;;;;;53.93;19.23;;;-2.40;22.80;;;;;;5008589;28;20474;-72
2024/01/20 06:17:21;;;;;;;96.57;20.13;;;-2.40;22.30;;;;;;5011398;28;20512;-72
2024/01/20 06:19:48;;;;;;;45.07;17.33;;;-2.40;22.30;;;;;;5007575;28;20470;-72
2024/01/20 06:22:15;;;;;;;48.43;18.27;;;-2.40;22.00;;;;;;5010440;28;20802;-72
2024/01/20 06:24:44;;;;;;;69.77;20.03;;;-2.50;22.50;;;;;;5003441;28;20894;-72
2024/01/20 06:27:11;;;;;;;44.10;18.20;;;-2.50;22.50;;;;;;4997157;28;20486;-72
2024/01/20 06:29:41;;;;;;;39.53;21.10;;;-2.60;22.40;;;;;;5001368;28;20460;-72
2024/01/20 06:32:08;;;;;;;42.67;18.50;;;-2.60;22.60;;;;;;4995269;28;20476;-72
2024/01/20 06:34:35;;;;;;;39.57;18.03;;;-2.60;22.60;;;;;;4997579;28;20457;-72
2024/01/20 06:37:02;;;;;;;44.40;19.53;;;-2.60;22.70;;;;;;5002487;28;20484;-72
2024/01/20 06:39:29;;;;;;;49.93;19.07;;;-2.60;22.70;;;;;;5003953;28;20491;-72
2024/01/20 06:41:57;;;;;;;60.70;20.90;;;-2.60;22.70;;;;;;4996393;28;20464;-72
2024/01/20 06:44:24;;;;;;;98.73;21.90;;;-2.60;22.60;;;;;;5000313;28;20563;-72
2024/01/20 06:46:51;;;;;;;37.70;19.27;;;-2.60;22.40;;;;;;5006279;28;20557;-72
2024/01/20 06:49:18;;;;;;;41.00;17.67;;;-2.60;22.40;;;;;;5005394;28;21032;-72
2024/01/20 06:51:45;;;;;;;38.20;18.70;;;-2.60;22.40;;;;;;5001665;28;20527;-72
2024/01/20 06:54:12;;;;;;;44.47;17.93;;;-2.70;22.60;;;;;;5004834;28;20463;-72
2024/01/20 06:56:39;;;;;;;72.30;19.43;;;-2.60;22.60;;;;;;5005036;28;20480;-72
2024/01/20 07:01:45;;;;;;;49.80;19.60;;;-2.60;21.90;;;;;;5019658;28;20455;-69
2024/01/20 07:04:12;;;;;;;38.03;16.47;;;-2.60;22.00;;;;;;5030724;28;21181;-69
2024/01/20 07:06:39;;;;;;;38.90;20.33;;;-2.60;22.20;;;;;;5028249;28;20491;-69
2024/01/20 07:09:06;;;;;;;41.97;19.10;;;-2.60;22.20;;;;;;5012234;28;20491;-70
2024/01/20 07:11:33;;;;;;;39.57;18.80;;;-2.50;22.50;;;;;;5013523;28;20463;-70
2024/01/20 07:14:00;;;;;;;41.90;19.40;;;-2.50;22.50;;;;;;5011356;28;20554;-70
2024/01/20 07:16:26;;;;;;;37.93;17.90;;;-2.40;21.90;;;;;;5007897;28;20530;-70
2024/01/20 07:18:55;;;;;;;66.80;21.73;;;-2.50;22.20;;;;;;5010006;28;20459;-69
2024/01/20 07:21:21;;;;;;;35.37;16.43;;;-2.40;22.00;;;;;;5001862;28;20565;-69
2024/01/20 07:23:48;;;;;;;47.90;19.13;;;-2.40;21.70;;;;;;5009675;28;20460;-69
2024/01/20 07:26:15;;;;;;;90.03;22.50;;;-2.40;21.60;;;;;;5003655;28;20551;-69
2024/01/20 07:28:42;;;;;;;38.97;20.17;;;-2.40;21.20;;;;;;5004047;28;20468;-70
2024/01/20 07:31:09;;;;;;;65.87;21.87;;;-2.40;21.30;;;;;;5004000;28;20580;-69
2024/01/20 07:33:36;;;;;;;41.00;21.07;;;-2.50;21.70;;;;;;5004140;28;20567;-69
2024/01/20 07:36:04;;;;;;;39.83;19.73;;;-2.50;22.10;;;;;;5004358;28;21055;-69
2024/01/20 07:38:32;;;;;;;38.70;18.10;;;-2.50;22.20;;;;;;5006984;28;20497;-69
2024/01/20 07:40:59;;;;;;;38.50;20.10;;;-2.50;22.40;;;;;;5006372;28;20460;-70
2024/01/20 07:43:26;;;;;;;39.87;20.03;;;-2.50;22.10;;;;;;5001772;28;20465;-69
2024/01/20 07:45:54;;;;;;;39.30;17.13;;;-2.40;22.10;;;;;;5008821;28;20552;-69
2024/01/20 07:48:21;;;;;;;38.30;19.37;;;-2.40;22.30;;;;;;5003118;28;20485;-71
2024/01/20 07:50:48;;;;;;;39.10;20.37;;;-2.40;22.20;;;;;;5011188;28;20463;-69
2024/01/20 07:53:16;;;;;;;47.60;22.57;;;-2.40;22.30;;;;;;5015350;28;20459;-69
2024/01/20 07:55:43;;;;;;;42.17;21.53;;;-2.30;22.40;;;;;;5008144;28;20466;-69
2024/01/20 07:58:10;;;;;;;44.07;19.70;;;-2.30;22.20;;;;;;5009193;28;20883;-70
2024/01/20 08:00:37;;;;;;;43.60;20.23;;;-2.30;22.20;;;;;;5009348;28;21045;-69
2024/01/20 08:03:04;;;;;;;42.47;20.20;;;-2.20;22.00;;;;;;5002507;28;20461;-69
2024/01/20 08:05:32;;;;;;;45.87;21.43;;;-2.30;22.00;;;;;;5000236;28;20897;-69
2024/01/20 08:07:58;;;;;;;46.43;20.63;;;-2.30;21.70;;;;;;5009654;28;20481;-69
2024/01/20 08:10:27;;;;;;;35.70;18.33;;;-2.20;21.60;;;;;;5008150;28;20567;-70
2024/01/20 08:12:53;;;;;;;37.50;17.03;;;-2.20;21.50;;;;;;5007796;28;20467;-69
2024/01/20 08:15:20;;;;;;;30.80;16.03;;;-2.10;20.70;;;;;;5004175;28;20559;-69
2024/01/20 08:17:47;;;;;;;32.83;19.27;;;-2.10;20.30;;;;;;5010464;28;20590;-70
2024/01/20 08:20:14;;;;;;;34.67;18.80;;;-2.10;20.40;;;;;;5008075;28;20543;-69
2024/01/20 08:22:41;;;;;;;35.73;16.60;;;-2.10;20.20;;;;;;5001947;28;20469;-69
2024/01/20 08:25:09;;;;;;;39.27;21.27;;;-2.10;20.20;;;;;;5002029;28;20461;-69
2024/01/20 08:27:37;;;;;;;33.50;17.83;;;-2.00;20.10;;;;;;5002461;28;20596;-69
2024/01/20 08:30:05;;;;;;;41.20;19.10;;;-2.10;20.00;;;;;;5005590;28;20863;-69
2024/01/20 08:32:32;;;;;;;38.93;19.00;;;-2.10;20.20;;;;;;5005784;28;20476;-69
2024/01/20 08:34:59;;;;;;;34.50;17.93;;;-2.00;20.30;;;;;;5005591;28;21143;-69
2024/01/20 08:37:26;;;;;;;35.23;19.40;;;-1.90;20.10;;;;;;5006080;28;20906;-70
2024/01/20 08:39:53;;;;;;;36.90;19.93;;;-1.90;20.10;;;;;;5005674;28;20464;-70
2024/01/20 08:42:20;;;;;;;38.53;17.60;;;-1.80;20.00;;;;;;5000514;28;20463;-70
2024/01/20 08:44:48;;;;;;;35.10;19.70;;;-1.80;19.80;;;;;;5007689;28;20460;-69
2024/01/20 08:47:15;;;;;;;32.83;18.20;;;-1.80;19.60;;;;;;5012617;28;20918;-69
2024/01/20 08:49:42;;;;;;;33.73;18.23;;;-1.80;19.50;;;;;;5032618;28;20507;-69
2024/01/20 08:52:10;;;;;;;30.20;18.77;;;-1.70;19.40;;;;;;5026867;28;20484;-69
2024/01/20 08:54:37;;;;;;;37.93;18.83;;;-1.70;19.40;;;;;;5004205;28;20535;-69
2024/01/20 08:57:05;;;;;;;39.80;20.83;;;-1.60;19.50;;;;;;5008417;28;20484;-69
2024/01/20 08:59:32;;;;;;;34.10;19.80;;;-1.30;19.50;;;;;;5006032;28;20535;-69
2024/01/20 09:02:01;;;;;;;46.10;23.70;;;-1.10;19.20;;;;;;5003546;28;20543;-69
2024/01/20 09:04:27;;;;;;;38.90;21.60;;;-0.90;18.90;;;;;;4997734;28;20536;-69
2024/01/20 09:06:54;;;;;;;37.47;20.83;;;-0.80;18.40;;;;;;5007399;28;20839;-69
2024/01/20 09:09:21;;;;;;;37.57;22.60;;;-0.70;18.00;;;;;;5003274;28;20552;-69
2024/01/20 09:11:48;;;;;;;40.20;22.20;;;-0.70;17.60;;;;;;5007386;28;20470;-69
2024/01/20 09:14:15;;;;;;;42.20;21.93;;;-0.60;17.40;;;;;;5002732;28;20456;-69
2024/01/20 09:16:42;;;;;;;35.23;19.57;;;-0.60;17.20;;;;;;5008986;28;20853;-69
2024/01/20 09:19:10;;;;;;;34.37;20.37;;;-0.40;17.10;;;;;;5003974;28;20451;-69
2024/01/20 09:21:37;;;;;;;33.03;18.50;;;-0.40;16.40;;;;;;5005765;28;20543;-69
2024/01/20 09:24:05;;;;;;;35.30;21.50;;;-0.30;16.20;;;;;;4999869;28;20494;-69
2024/01/20 09:26:31;;;;;;;29.63;17.50;;;-0.20;15.90;;;;;;5004527;28;20587;-69
2024/01/20 09:28:58;;;;;;;28.37;16.70;;;0.00;15.60;;;;;;5000698;28;20466;-69
2024/01/20 09:31:25;;;;;;;32.10;17.90;;;0.00;14.80;;;;;;5010161;28;20558;-70
2024/01/20 09:33:52;;;;;;;33.27;19.93;;;0.10;14.70;;;;;;5008953;28;20955;-69
2024/01/20 09:36:20;;;;;;;32.50;17.53;;;0.20;14.80;;;;;;4999468;28;20535;-69
2024/01/20 09:38:48;;;;;;;35.30;21.03;;;0.30;14.90;;;;;;5005793;28;20972;-68
2024/01/20 09:41:15;;;;;;;38.43;18.43;;;0.40;14.80;;;;;;5012749;28;20467;-69
2024/01/20 09:43:44;;;;;;;35.83;19.90;;;0.70;14.40;;;;;;5009059;28;20460;-69
2024/01/20 09:46:12;;;;;;;30.70;19.03;;;0.90;13.60;;;;;;5005329;28;20998;-70
2024/01/20 09:48:39;;;;;;;31.87;18.37;;;1.10;13.40;;;;;;5007501;28;20462;-69
2024/01/20 09:51:08;;;;;;;35.50;20.07;;;1.60;13.00;;;;;;5002451;28;20456;-69
2024/01/20 09:53:36;;;;;;;29.53;15.73;;;2.00;12.10;;;;;;5008617;28;20459;-69
2024/01/20 09:56:03;;;;;;;25.40;15.10;;;2.30;11.30;;;;;;5008069;28;20879;-69
2024/01/20 09:58:34;;;;;;;25.80;14.87;;;2.50;10.40;;;;;;5004428;28;20962;-69
2024/01/20 10:01:02;;;;;;;30.47;17.80;;;2.60;9.80;;;;;;4988034;28;20474;-70
2024/01/20 10:03:31;;;;;;;26.80;15.57;;;3.00;9.90;;;;;;5004931;28;20471;-69
2024/01/20 10:05:59;;;;;;;23.57;13.70;;;3.70;9.10;;;;;;4997781;28;20555;-70
2024/01/20 10:08:25;;;;;;;22.33;13.13;;;4.30;7.90;;;;;;5001911;28;20491;-69
2024/01/20 10:11:04;;;;;;;24.20;15.03;;;4.50;6.20;;;;;;5003352;28;20462;-70
2024/01/20 10:13:31;;;;;;;23.43;14.10;;;4.80;6.30;;;;;;5001206;28;20466;-70
2024/01/20 10:15:58;;;;;;;26.90;16.20;;;5.00;4.50;;;;;;5002548;28;20482;-69
2024/01/20 10:18:24;;;;;;;23.70;14.37;;;5.40;5.00;;;;;;5004038;28;20480;-69
2024/01/20 10:21:02;;;;;;;22.20;15.10;;;5.90;4.80;;;;;;5008983;28;20463;-69
2024/01/20 10:23:29;;;;;;;25.33;15.13;;;6.40;3.70;;;;;;5009473;28;20474;-69
2024/01/20 10:26:01;;;;;;;24.60;15.87;;;6.70;2.50;;;;;;5007346;28;20542;-68
2024/01/20 10:28:29;;;;;;;24.77;16.13;;;7.10;2.30;;;;;;5011989;28;20522;-69
2024/01/20 10:30:56;;;;;;;25.30;16.10;;;7.50;1.50;;;;;;5005019;28;21020;-70
2024/01/20 10:33:23;;;;;;;23.97;15.27;;;7.70;1.00;;;;;;5008766;28;20451;-69
2024/01/20 10:35:51;;;;;;;22.17;14.40;;;7.90;1.00;;;;;;5005984;28;20468;-70
2024/01/20 10:38:21;;;;;;;24.47;15.50;;;8.20;1.00;;;;;;5008993;28;20476;-69
2024/01/20 10:40:51;;;;;;;25.60;17.23;;;8.40;1.00;;;;;;5007558;28;20463;-69
2024/01/20 10:43:18;;;;;;;23.10;15.87;;;8.50;1.00;;;;;;5006775;28;20936;-69
2024/01/20 10:45:53;;;;;;;21.27;14.53;;;8.80;1.00;;;;;;5006605;28;20470;-68
2024/01/20 10:48:22;;;;;;;23.67;14.83;;;9.00;1.00;;;;;;5011092;28;20530;-69
2024/01/20 10:50:53;;;;;;;26.63;15.70;;;8.80;1.00;;;;;;5006193;28;20481;-69
2024/01/20 10:53:21;;;;;;;28.30;17.13;;;8.50;1.00;;;;;;5008316;28;20460;-69
2024/01/20 10:55:48;;;;;;;21.83;14.80;;;8.50;1.00;;;;;;5007506;28;20864;-69
2024/01/20 10:58:18;;;;;;;21.63;14.80;;;8.50;1.00;;;;;;5005524;28;20487;-69
2024/01/20 11:00:46;;;;;;;24.03;15.00;;;8.70;1.00;;;;;;5003845;28;20468;-69
2024/01/20 11:03:14;;;;;;;20.10;13.60;;;9.00;1.00;;;;;;5008052;28;20546;-69
2024/01/20 11:05:46;;;;;;;21.50;14.13;;;9.20;1.00;;;;;;5002512;28;20498;-69
2024/01/20 11:08:13;;;;;;;21.10;14.47;;;9.40;1.00;;;;;;5007214;28;21023;-69
2024/01/20 11:10:41;;;;;;;22.93;14.20;;;9.70;1.00;;;;;;5006089;28;20496;-69
2024/01/20 11:13:10;;;;;;;23.60;15.87;;;9.90;1.00;;;;;;5001609;28;20556;-69
2024/01/20 11:15:38;;;;;;;21.67;14.37;;;10.30;1.00;;;;;;5005064;28;20477;-69
2024/01/20 11:18:16;;;;;;;21.47;14.67;;;10.40;1.00;;;;;;5006556;28;20921;-69
2024/01/20 11:20:54;;;;;;;21.60;14.20;;;10.80;1.00;;;;;;5005023;28;20463;-68
2024/01/20 11:23:21;;;;;;;21.80;14.47;;;11.20;1.00;;;;;;5008675;28;20455;-70
2024/01/20 11:25:49;;;;;;;18.73;14.13;;;11.60;1.00;;;;;;5012777;28;20539;-68
2024/01/20 11:28:23;;;;;;;20.60;13.60;;;11.70;1.00;;;;;;5003310;28;20480;-69
2024/01/20 11:30:50;;;;;;;20.50;14.70;;;11.80;1.00;;;;;;5003734;28;20478;-69
2024/01/20 11:33:19;;;;;;;21.00;13.57;;;11.60;1.00;;;;;;5008114;28;20829;-69
2024/01/20 11:35:46;;;;;;;20.50;14.87;;;11.90;1.00;;;;;;5008879;28;20468;-68
2024/01/20 11:38:14;;;;;;;18.93;14.43;;;12.40;1.00;;;;;;5007230;28;20484;-69
2024/01/20 11:40:42;;;;;;;19.00;13.30;;;13.00;1.00;;;;;;5008912;28;20486;-69
2024/01/20 11:43:11;;;;;;;19.80;13.50;;;13.40;1.00;;;;;;4999632;28;20469;-70
2024/01/20 11:45:38;;;;;;;23.07;15.80;;;13.80;1.00;;;;;;5003814;28;20467;-69
2024/01/20 11:48:05;;;;;;;21.70;13.47;;;14.10;1.00;;;;;;5011106;28;20839;-69
2024/01/20 11:50:34;;;;;;;20.17;13.93;;;14.40;1.00;;;;;;5002967;28;20549;-69
2024/01/20 11:53:01;;;;;;;17.37;11.33;;;14.60;1.00;;;;;;5001108;28;20487;-69
2024/01/20 11:55:28;;;;;;;17.20;12.00;;;14.70;1.00;;;;;;5003845;28;20467;-69
2024/01/20 11:57:55;;;;;;;19.33;13.53;;;14.80;1.00;;;;;;5022398;28;20566;-70
2024/01/20 12:00:22;;;;;;;27.67;20.30;;;14.80;1.00;;;;;;5028300;28;20688;-70
2024/01/20 12:02:50;;;;;;;16.30;11.87;;;14.90;1.00;;;;;;5017196;28;20530;-69
2024/01/20 12:05:17;;;;;;;16.60;11.33;;;15.00;1.00;;;;;;5005442;28;20471;-69
2024/01/20 12:07:46;;;;;;;18.80;12.90;;;14.90;1.00;;;;;;5005666;28;20571;-69
2024/01/20 12:10:15;;;;;;;27.23;18.30;;;14.80;1.00;;;;;;5003938;28;20546;-70
2024/01/20 12:12:42;;;;;;;14.57;10.67;;;14.80;1.00;;;;;;5004463;28;20556;-69
2024/01/20 12:15:10;;;;;;;22.50;11.47;;;14.60;1.00;;;;;;5003741;28;20575;-69
2024/01/20 12:17:36;;;;;;;14.83;10.23;;;14.30;1.00;;;;;;5004890;28;20981;-69
2024/01/20 12:20:04;;;;;;;15.03;10.37;;;14.10;1.00;;;;;;5002399;28;20535;-69
2024/01/20 12:22:32;;;;;;;15.63;10.70;;;13.90;1.00;;;;;;5003723;28;20518;-68
2024/01/20 12:25:00;;;;;;;15.03;10.20;;;13.90;1.00;;;;;;5003369;28;20491;-69
2024/01/20 12:27:28;;;;;;;14.20;10.23;;;13.90;1.00;;;;;;5006837;28;21055;-69
2024/01/20 12:29:55;;;;;;;16.87;11.43;;;13.90;1.00;;;;;;5005528;28;20466;-69
2024/01/20 12:32:21;;;;;;;16.57;12.03;;;13.80;1.00;;;;;;5006548;28;20468;-69
2024/01/20 12:34:48;;;;;;;19.00;12.00;;;13.60;1.00;;;;;;5002321;28;20571;-69